sensor_id;sensor_type;location;lat;lon;timestamp;P1;durP1;ratioP1;P2;durP2;ratioP2
8556;SDS011;4316;53.840;10.762;2023-03-03T00:01:09;28.03;;;15.90;;
8556;SDS011;4316;53.840;10.762;2023-03-03T00:03:35;23.67;;;15.87;;
8556;SDS011;4316;53.840;10.762;2023-03-03T00:06:02;26.67;;;17.23;;
8556;SDS011;4316;53.840;10.762;2023-03-03T00:08:28;22.87;;;15.00;;
8556;SDS011;4316;53.840;10.762;2023-03-03T00:10:55;25.70;;;15.80;;
8556;SDS011;4316;53.840;10.762;2023-03-03T00:13:22;20.00;;;14.57;;
8556;SDS011;4316;53.840;10.762;2023-03-03T00:15:50;21.57;;;14.90;;
8556;SDS011;4316;53.840;10.762;2023-03-03T00:18:20;23.33;;;15.20;;
8556;SDS011;4316;53.840;10.762;2023-03-03T00:20:54;20.50;;;14.67;;
8556;SDS011;4316;53.840;10.762;2023-03-03T00:25:54;22.23;;;15.57;;
8556;SDS011;4316;53.840;10.762;2023-03-03T00:28:30;26.50;;;14.97;;
8556;SDS011;4316;53.840;10.762;2023-03-03T00:31:05;20.63;;;14.93;;
8556;SDS011;4316;53.840;10.762;2023-03-03T00:33:42;25.50;;;15.23;;
8556;SDS011;4316;53.840;10.762;2023-03-03T00:36:35;29.40;;;15.97;;
8556;SDS011;4316;53.840;10.762;2023-03-03T00:42:11;34.93;;;17.90;;
8556;SDS011;4316;53.840;10.762;2023-03-03T00:44:40;38.27;;;19.80;;
8556;SDS011;4316;53.840;10.762;2023-03-03T00:52:40;34.57;;;20.60;;
8556;SDS011;4316;53.840;10.762;2023-03-03T00:55:20;141.50;;;22.27;;
8556;SDS011;4316;53.840;10.762;2023-03-03T00:57:46;43.20;;;20.97;;
8556;SDS011;4316;53.840;10.762;2023-03-03T01:00:18;64.70;;;18.80;;
8556;SDS011;4316;53.840;10.762;2023-03-03T01:02:44;66.80;;;20.83;;
8556;SDS011;4316;53.840;10.762;2023-03-03T01:05:13;44.77;;;20.60;;
8556;SDS011;4316;53.840;10.762;2023-03-03T01:07:41;36.10;;;20.77;;
8556;SDS011;4316;53.840;10.762;2023-03-03T01:10:07;39.87;;;22.90;;
8556;SDS011;4316;53.840;10.762;2023-03-03T01:12:33;52.00;;;21.67;;
8556;SDS011;4316;53.840;10.762;2023-03-03T01:15:00;57.40;;;20.93;;
8556;SDS011;4316;53.840;10.762;2023-03-03T01:17:26;49.43;;;20.43;;
8556;SDS011;4316;53.840;10.762;2023-03-03T01:19:53;32.40;;;20.27;;
8556;SDS011;4316;53.840;10.762;2023-03-03T01:22:19;29.73;;;19.70;;
8556;SDS011;4316;53.840;10.762;2023-03-03T01:24:44;30.27;;;19.60;;
8556;SDS011;4316;53.840;10.762;2023-03-03T01:27:10;33.13;;;18.47;;
8556;SDS011;4316;53.840;10.762;2023-03-03T01:29:36;30.37;;;17.73;;
8556;SDS011;4316;53.840;10.762;2023-03-03T01:32:01;29.40;;;19.13;;
8556;SDS011;4316;53.840;10.762;2023-03-03T01:34:27;28.10;;;18.87;;
8556;SDS011;4316;53.840;10.762;2023-03-03T01:36:53;29.27;;;18.40;;
8556;SDS011;4316;53.840;10.762;2023-03-03T01:39:19;150.60;;;20.30;;
8556;SDS011;4316;53.840;10.762;2023-03-03T01:41:44;30.27;;;17.47;;
8556;SDS011;4316;53.840;10.762;2023-03-03T01:44:12;32.70;;;18.93;;
8556;SDS011;4316;53.840;10.762;2023-03-03T01:49:26;38.13;;;19.73;;
8556;SDS011;4316;53.840;10.762;2023-03-03T01:51:59;44.27;;;22.50;;
8556;SDS011;4316;53.840;10.762;2023-03-03T01:54:29;36.50;;;22.33;;
8556;SDS011;4316;53.840;10.762;2023-03-03T01:57:03;39.87;;;22.53;;
8556;SDS011;4316;53.840;10.762;2023-03-03T01:59:36;46.87;;;22.37;;
8556;SDS011;4316;53.840;10.762;2023-03-03T02:02:04;77.70;;;21.57;;
8556;SDS011;4316;53.840;10.762;2023-03-03T02:04:31;32.40;;;20.50;;
8556;SDS011;4316;53.840;10.762;2023-03-03T02:07:00;187.70;;;23.00;;
8556;SDS011;4316;53.840;10.762;2023-03-03T02:09:45;62.50;;;20.40;;
8556;SDS011;4316;53.840;10.762;2023-03-03T02:12:30;38.57;;;19.27;;
8556;SDS011;4316;53.840;10.762;2023-03-03T02:15:00;57.60;;;19.33;;
8556;SDS011;4316;53.840;10.762;2023-03-03T02:17:26;295.10;;;21.10;;
8556;SDS011;4316;53.840;10.762;2023-03-03T02:23:11;133.97;;;17.17;;
8556;SDS011;4316;53.840;10.762;2023-03-03T02:28:24;183.17;;;17.33;;
8556;SDS011;4316;53.840;10.762;2023-03-03T02:30:54;22.87;;;14.63;;
8556;SDS011;4316;53.840;10.762;2023-03-03T02:33:22;99.33;;;16.07;;
8556;SDS011;4316;53.840;10.762;2023-03-03T02:35:48;104.43;;;14.17;;
8556;SDS011;4316;53.840;10.762;2023-03-03T02:38:20;29.23;;;15.10;;
8556;SDS011;4316;53.840;10.762;2023-03-03T02:40:58;73.47;;;16.37;;
8556;SDS011;4316;53.840;10.762;2023-03-03T02:43:45;66.20;;;16.00;;
8556;SDS011;4316;53.840;10.762;2023-03-03T02:46:19;109.57;;;16.03;;
8556;SDS011;4316;53.840;10.762;2023-03-03T02:48:45;30.37;;;14.77;;
8556;SDS011;4316;53.840;10.762;2023-03-03T02:51:10;110.53;;;15.80;;
8556;SDS011;4316;53.840;10.762;2023-03-03T02:53:37;102.27;;;14.83;;
8556;SDS011;4316;53.840;10.762;2023-03-03T02:56:03;58.47;;;15.40;;
8556;SDS011;4316;53.840;10.762;2023-03-03T02:58:31;50.27;;;14.70;;
8556;SDS011;4316;53.840;10.762;2023-03-03T03:00:57;24.53;;;12.77;;
8556;SDS011;4316;53.840;10.762;2023-03-03T03:03:23;102.63;;;14.00;;
8556;SDS011;4316;53.840;10.762;2023-03-03T03:05:50;47.27;;;13.73;;
8556;SDS011;4316;53.840;10.762;2023-03-03T03:08:18;35.07;;;14.10;;
8556;SDS011;4316;53.840;10.762;2023-03-03T03:10:44;106.23;;;14.40;;
8556;SDS011;4316;53.840;10.762;2023-03-03T03:13:11;65.60;;;14.53;;
8556;SDS011;4316;53.840;10.762;2023-03-03T03:15:37;55.20;;;13.80;;
8556;SDS011;4316;53.840;10.762;2023-03-03T03:18:03;60.30;;;13.73;;
8556;SDS011;4316;53.840;10.762;2023-03-03T03:20:30;53.07;;;13.83;;
8556;SDS011;4316;53.840;10.762;2023-03-03T03:22:55;15.83;;;13.27;;
8556;SDS011;4316;53.840;10.762;2023-03-03T03:25:21;38.00;;;14.10;;
8556;SDS011;4316;53.840;10.762;2023-03-03T03:27:47;16.40;;;12.63;;
8556;SDS011;4316;53.840;10.762;2023-03-03T03:30:13;64.43;;;13.77;;
8556;SDS011;4316;53.840;10.762;2023-03-03T03:32:40;89.17;;;13.97;;
8556;SDS011;4316;53.840;10.762;2023-03-03T03:35:05;42.67;;;13.00;;
8556;SDS011;4316;53.840;10.762;2023-03-03T03:37:31;17.97;;;12.73;;
8556;SDS011;4316;53.840;10.762;2023-03-03T03:39:57;15.43;;;11.43;;
8556;SDS011;4316;53.840;10.762;2023-03-03T03:42:25;24.37;;;12.03;;
8556;SDS011;4316;53.840;10.762;2023-03-03T03:44:51;46.83;;;14.20;;
8556;SDS011;4316;53.840;10.762;2023-03-03T03:47:17;17.10;;;12.07;;
8556;SDS011;4316;53.840;10.762;2023-03-03T03:49:43;23.57;;;12.53;;
8556;SDS011;4316;53.840;10.762;2023-03-03T03:52:10;72.37;;;13.20;;
8556;SDS011;4316;53.840;10.762;2023-03-03T03:54:36;34.23;;;12.67;;
8556;SDS011;4316;53.840;10.762;2023-03-03T03:57:02;87.77;;;13.03;;
8556;SDS011;4316;53.840;10.762;2023-03-03T03:59:28;105.13;;;13.67;;
8556;SDS011;4316;53.840;10.762;2023-03-03T04:01:54;28.53;;;12.03;;
8556;SDS011;4316;53.840;10.762;2023-03-03T04:04:21;23.20;;;12.03;;
8556;SDS011;4316;53.840;10.762;2023-03-03T04:06:48;23.10;;;12.07;;
8556;SDS011;4316;53.840;10.762;2023-03-03T04:09:14;12.70;;;11.33;;
8556;SDS011;4316;53.840;10.762;2023-03-03T04:11:41;24.57;;;11.83;;
8556;SDS011;4316;53.840;10.762;2023-03-03T04:14:08;19.43;;;11.13;;
8556;SDS011;4316;53.840;10.762;2023-03-03T04:16:34;62.80;;;11.23;;
8556;SDS011;4316;53.840;10.762;2023-03-03T04:19:00;54.77;;;11.90;;
8556;SDS011;4316;53.840;10.762;2023-03-03T04:21:26;30.37;;;11.43;;
8556;SDS011;4316;53.840;10.762;2023-03-03T04:23:55;32.57;;;11.37;;
8556;SDS011;4316;53.840;10.762;2023-03-03T04:26:20;13.83;;;10.87;;
8556;SDS011;4316;53.840;10.762;2023-03-03T04:28:47;96.77;;;13.23;;
8556;SDS011;4316;53.840;10.762;2023-03-03T04:31:13;13.67;;;11.37;;
8556;SDS011;4316;53.840;10.762;2023-03-03T04:33:41;32.97;;;12.70;;
8556;SDS011;4316;53.840;10.762;2023-03-03T04:36:07;73.57;;;13.23;;
8556;SDS011;4316;53.840;10.762;2023-03-03T04:38:33;69.70;;;13.70;;
8556;SDS011;4316;53.840;10.762;2023-03-03T04:40:58;36.60;;;12.97;;
8556;SDS011;4316;53.840;10.762;2023-03-03T04:43:27;53.10;;;13.37;;
8556;SDS011;4316;53.840;10.762;2023-03-03T04:45:54;40.03;;;12.97;;
8556;SDS011;4316;53.840;10.762;2023-03-03T04:48:21;26.97;;;12.20;;
8556;SDS011;4316;53.840;10.762;2023-03-03T04:50:47;43.70;;;13.47;;
8556;SDS011;4316;53.840;10.762;2023-03-03T04:53:13;19.13;;;13.53;;
8556;SDS011;4316;53.840;10.762;2023-03-03T04:55:40;81.83;;;13.60;;
8556;SDS011;4316;53.840;10.762;2023-03-03T04:58:06;25.23;;;13.50;;
8556;SDS011;4316;53.840;10.762;2023-03-03T05:00:35;41.80;;;13.43;;
8556;SDS011;4316;53.840;10.762;2023-03-03T05:03:01;17.53;;;12.67;;
8556;SDS011;4316;53.840;10.762;2023-03-03T05:05:27;29.70;;;11.90;;
8556;SDS011;4316;53.840;10.762;2023-03-03T05:07:53;31.50;;;12.40;;
8556;SDS011;4316;53.840;10.762;2023-03-03T05:10:18;12.83;;;10.67;;
8556;SDS011;4316;53.840;10.762;2023-03-03T05:12:45;13.13;;;11.67;;
8556;SDS011;4316;53.840;10.762;2023-03-03T05:15:11;14.80;;;11.47;;
8556;SDS011;4316;53.840;10.762;2023-03-03T05:17:37;65.60;;;13.30;;
8556;SDS011;4316;53.840;10.762;2023-03-03T05:20:03;63.77;;;13.13;;
8556;SDS011;4316;53.840;10.762;2023-03-03T05:22:29;46.37;;;13.70;;
8556;SDS011;4316;53.840;10.762;2023-03-03T05:24:55;16.50;;;12.63;;
8556;SDS011;4316;53.840;10.762;2023-03-03T05:27:21;15.93;;;11.97;;
8556;SDS011;4316;53.840;10.762;2023-03-03T05:29:47;26.10;;;11.70;;
8556;SDS011;4316;53.840;10.762;2023-03-03T05:32:13;19.83;;;12.57;;
8556;SDS011;4316;53.840;10.762;2023-03-03T05:34:39;31.93;;;12.03;;
8556;SDS011;4316;53.840;10.762;2023-03-03T05:37:05;28.37;;;12.57;;
8556;SDS011;4316;53.840;10.762;2023-03-03T05:39:31;23.83;;;12.67;;
8556;SDS011;4316;53.840;10.762;2023-03-03T05:41:58;40.07;;;12.23;;
8556;SDS011;4316;53.840;10.762;2023-03-03T05:44:24;46.60;;;12.67;;
8556;SDS011;4316;53.840;10.762;2023-03-03T05:46:50;22.37;;;11.90;;
8556;SDS011;4316;53.840;10.762;2023-03-03T05:49:16;23.07;;;13.40;;
8556;SDS011;4316;53.840;10.762;2023-03-03T05:51:42;72.13;;;13.93;;
8556;SDS011;4316;53.840;10.762;2023-03-03T05:54:08;54.37;;;13.17;;
8556;SDS011;4316;53.840;10.762;2023-03-03T05:56:34;32.13;;;12.17;;
8556;SDS011;4316;53.840;10.762;2023-03-03T05:59:00;98.80;;;14.87;;
8556;SDS011;4316;53.840;10.762;2023-03-03T06:01:25;50.40;;;13.00;;
8556;SDS011;4316;53.840;10.762;2023-03-03T06:03:52;19.13;;;11.97;;
8556;SDS011;4316;53.840;10.762;2023-03-03T06:06:18;46.50;;;13.37;;
8556;SDS011;4316;53.840;10.762;2023-03-03T06:08:44;20.07;;;12.83;;
8556;SDS011;4316;53.840;10.762;2023-03-03T06:11:10;25.33;;;13.23;;
8556;SDS011;4316;53.840;10.762;2023-03-03T06:13:37;40.90;;;14.07;;
8556;SDS011;4316;53.840;10.762;2023-03-03T06:16:03;35.50;;;13.07;;
8556;SDS011;4316;53.840;10.762;2023-03-03T06:18:29;29.10;;;12.50;;
8556;SDS011;4316;53.840;10.762;2023-03-03T06:20:54;58.97;;;13.07;;
8556;SDS011;4316;53.840;10.762;2023-03-03T06:23:20;58.17;;;13.40;;
8556;SDS011;4316;53.840;10.762;2023-03-03T06:25:46;110.33;;;15.47;;
8556;SDS011;4316;53.840;10.762;2023-03-03T06:28:13;37.17;;;13.07;;
8556;SDS011;4316;53.840;10.762;2023-03-03T06:30:39;21.03;;;12.77;;
8556;SDS011;4316;53.840;10.762;2023-03-03T06:33:05;50.70;;;12.63;;
8556;SDS011;4316;53.840;10.762;2023-03-03T06:35:31;38.90;;;13.47;;
8556;SDS011;4316;53.840;10.762;2023-03-03T06:37:56;15.67;;;12.40;;
8556;SDS011;4316;53.840;10.762;2023-03-03T06:40:22;36.40;;;14.23;;
8556;SDS011;4316;53.840;10.762;2023-03-03T06:42:48;28.23;;;13.53;;
8556;SDS011;4316;53.840;10.762;2023-03-03T06:45:14;26.63;;;13.93;;
8556;SDS011;4316;53.840;10.762;2023-03-03T06:47:39;34.00;;;14.20;;
8556;SDS011;4316;53.840;10.762;2023-03-03T06:50:06;49.60;;;13.67;;
8556;SDS011;4316;53.840;10.762;2023-03-03T06:52:34;35.27;;;13.40;;
8556;SDS011;4316;53.840;10.762;2023-03-03T06:55:00;15.60;;;13.07;;
8556;SDS011;4316;53.840;10.762;2023-03-03T06:57:34;46.37;;;13.77;;
8556;SDS011;4316;53.840;10.762;2023-03-03T07:00:16;29.93;;;14.43;;
8556;SDS011;4316;53.840;10.762;2023-03-03T07:02:57;50.37;;;14.07;;
8556;SDS011;4316;53.840;10.762;2023-03-03T07:05:25;25.80;;;12.73;;
8556;SDS011;4316;53.840;10.762;2023-03-03T07:07:53;31.23;;;13.13;;
8556;SDS011;4316;53.840;10.762;2023-03-03T07:10:24;56.17;;;14.13;;
8556;SDS011;4316;53.840;10.762;2023-03-03T07:12:55;67.23;;;13.37;;
8556;SDS011;4316;53.840;10.762;2023-03-03T07:15:29;15.73;;;12.00;;
8556;SDS011;4316;53.840;10.762;2023-03-03T07:18:00;29.87;;;13.27;;
8556;SDS011;4316;53.840;10.762;2023-03-03T07:20:37;19.60;;;12.30;;
8556;SDS011;4316;53.840;10.762;2023-03-03T07:23:18;17.57;;;12.37;;
8556;SDS011;4316;53.840;10.762;2023-03-03T07:25:48;49.37;;;13.53;;
8556;SDS011;4316;53.840;10.762;2023-03-03T07:28:22;20.53;;;12.30;;
8556;SDS011;4316;53.840;10.762;2023-03-03T07:30:51;22.10;;;12.87;;
8556;SDS011;4316;53.840;10.762;2023-03-03T07:33:22;65.67;;;13.23;;
8556;SDS011;4316;53.840;10.762;2023-03-03T07:36:17;17.23;;;12.57;;
8556;SDS011;4316;53.840;10.762;2023-03-03T07:39:00;17.90;;;11.97;;
8556;SDS011;4316;53.840;10.762;2023-03-03T07:41:30;29.07;;;12.77;;
8556;SDS011;4316;53.840;10.762;2023-03-03T07:44:05;19.10;;;12.33;;
8556;SDS011;4316;53.840;10.762;2023-03-03T07:46:42;18.17;;;13.00;;
8556;SDS011;4316;53.840;10.762;2023-03-03T07:52:01;17.20;;;12.37;;
8556;SDS011;4316;53.840;10.762;2023-03-03T07:54:53;55.83;;;12.03;;
8556;SDS011;4316;53.840;10.762;2023-03-03T07:57:28;52.00;;;10.53;;
8556;SDS011;4316;53.840;10.762;2023-03-03T08:02:57;17.50;;;10.03;;
8556;SDS011;4316;53.840;10.762;2023-03-03T08:10:42;37.57;;;9.97;;
8556;SDS011;4316;53.840;10.762;2023-03-03T08:13:18;22.70;;;16.77;;
8556;SDS011;4316;53.840;10.762;2023-03-03T08:18:35;47.40;;;10.03;;
8556;SDS011;4316;53.840;10.762;2023-03-03T08:23:36;20.33;;;11.13;;
8556;SDS011;4316;53.840;10.762;2023-03-03T08:26:01;33.50;;;10.10;;
8556;SDS011;4316;53.840;10.762;2023-03-03T08:28:27;62.13;;;10.83;;
8556;SDS011;4316;53.840;10.762;2023-03-03T08:30:53;30.70;;;10.30;;
8556;SDS011;4316;53.840;10.762;2023-03-03T08:33:19;19.97;;;10.37;;
8556;SDS011;4316;53.840;10.762;2023-03-03T08:35:45;15.37;;;10.87;;
8556;SDS011;4316;53.840;10.762;2023-03-03T08:38:12;33.70;;;10.33;;
8556;SDS011;4316;53.840;10.762;2023-03-03T08:40:39;28.90;;;11.23;;
8556;SDS011;4316;53.840;10.762;2023-03-03T08:43:05;20.63;;;11.80;;
8556;SDS011;4316;53.840;10.762;2023-03-03T08:45:31;23.20;;;10.23;;
8556;SDS011;4316;53.840;10.762;2023-03-03T08:47:57;36.03;;;14.47;;
8556;SDS011;4316;53.840;10.762;2023-03-03T08:50:24;14.07;;;8.83;;
8556;SDS011;4316;53.840;10.762;2023-03-03T08:52:50;25.00;;;11.43;;
8556;SDS011;4316;53.840;10.762;2023-03-03T08:55:16;15.77;;;9.30;;
8556;SDS011;4316;53.840;10.762;2023-03-03T08:57:42;27.10;;;9.90;;
8556;SDS011;4316;53.840;10.762;2023-03-03T09:00:09;21.77;;;8.87;;
8556;SDS011;4316;53.840;10.762;2023-03-03T09:02:37;16.57;;;8.70;;
8556;SDS011;4316;53.840;10.762;2023-03-03T09:05:03;46.87;;;9.40;;
8556;SDS011;4316;53.840;10.762;2023-03-03T09:07:30;30.90;;;8.80;;
8556;SDS011;4316;53.840;10.762;2023-03-03T09:09:56;34.80;;;9.73;;
8556;SDS011;4316;53.840;10.762;2023-03-03T09:12:39;35.47;;;9.60;;
8556;SDS011;4316;53.840;10.762;2023-03-03T09:15:22;11.70;;;8.87;;
8556;SDS011;4316;53.840;10.762;2023-03-03T09:17:50;50.53;;;10.13;;
8556;SDS011;4316;53.840;10.762;2023-03-03T09:20:22;37.93;;;9.13;;
8556;SDS011;4316;53.840;10.762;2023-03-03T09:26:13;78.87;;;9.63;;
8556;SDS011;4316;53.840;10.762;2023-03-03T09:29:00;61.87;;;9.27;;
8556;SDS011;4316;53.840;10.762;2023-03-03T09:34:11;76.33;;;10.20;;
8556;SDS011;4316;53.840;10.762;2023-03-03T09:36:43;20.90;;;9.40;;
8556;SDS011;4316;53.840;10.762;2023-03-03T09:39:19;14.07;;;9.20;;
8556;SDS011;4316;53.840;10.762;2023-03-03T09:52:08;24.83;;;10.07;;
8556;SDS011;4316;53.840;10.762;2023-03-03T10:00:30;29.50;;;10.57;;
8556;SDS011;4316;53.840;10.762;2023-03-03T10:06:10;15.80;;;9.67;;
8556;SDS011;4316;53.840;10.762;2023-03-03T10:14:37;14.07;;;9.93;;
8556;SDS011;4316;53.840;10.762;2023-03-03T10:17:13;17.60;;;9.83;;
8556;SDS011;4316;53.840;10.762;2023-03-03T10:19:54;16.03;;;9.97;;
8556;SDS011;4316;53.840;10.762;2023-03-03T10:22:31;19.70;;;10.30;;
8556;SDS011;4316;53.840;10.762;2023-03-03T10:36:27;12.57;;;9.53;;
8556;SDS011;4316;53.840;10.762;2023-03-03T10:39:18;13.87;;;10.10;;
8556;SDS011;4316;53.840;10.762;2023-03-03T10:50:07;18.00;;;10.53;;
8556;SDS011;4316;53.840;10.762;2023-03-03T11:06:48;12.53;;;8.77;;
8556;SDS011;4316;53.840;10.762;2023-03-03T11:32:02;8.30;;;7.40;;
8556;SDS011;4316;53.840;10.762;2023-03-03T11:36:57;9.50;;;6.67;;
8556;SDS011;4316;53.840;10.762;2023-03-03T11:39:31;13.17;;;6.37;;
8556;SDS011;4316;53.840;10.762;2023-03-03T11:42:01;5.50;;;4.90;;
8556;SDS011;4316;53.840;10.762;2023-03-03T11:50:15;6.53;;;5.50;;
8556;SDS011;4316;53.840;10.762;2023-03-03T11:53:15;6.60;;;3.93;;
8556;SDS011;4316;53.840;10.762;2023-03-03T11:56:41;6.87;;;4.70;;
8556;SDS011;4316;53.840;10.762;2023-03-03T12:02:02;7.00;;;4.90;;
8556;SDS011;4316;53.840;10.762;2023-03-03T12:04:40;6.90;;;5.17;;
8556;SDS011;4316;53.840;10.762;2023-03-03T12:10:09;15.80;;;6.03;;
8556;SDS011;4316;53.840;10.762;2023-03-03T12:12:43;7.97;;;5.63;;
8556;SDS011;4316;53.840;10.762;2023-03-03T12:23:41;7.47;;;5.60;;
8556;SDS011;4316;53.840;10.762;2023-03-03T12:29:45;7.63;;;4.60;;
8556;SDS011;4316;53.840;10.762;2023-03-03T12:31:52;6.33;;;4.53;;
8556;SDS011;4316;53.840;10.762;2023-03-03T12:34:40;7.13;;;4.20;;
8556;SDS011;4316;53.840;10.762;2023-03-03T12:39:51;6.00;;;4.60;;
8556;SDS011;4316;53.840;10.762;2023-03-03T12:48:18;4.23;;;3.83;;
8556;SDS011;4316;53.840;10.762;2023-03-03T12:50:54;10.37;;;5.80;;
8556;SDS011;4316;53.840;10.762;2023-03-03T12:53:54;7.37;;;4.50;;
8556;SDS011;4316;53.840;10.762;2023-03-03T12:56:30;6.23;;;3.60;;
8556;SDS011;4316;53.840;10.762;2023-03-03T12:59:13;6.53;;;3.20;;
8556;SDS011;4316;53.840;10.762;2023-03-03T13:07:55;3.57;;;3.17;;
8556;SDS011;4316;53.840;10.762;2023-03-03T13:10:47;9.80;;;3.63;;
8556;SDS011;4316;53.840;10.762;2023-03-03T13:13:31;6.33;;;3.00;;
8556;SDS011;4316;53.840;10.762;2023-03-03T13:16:11;6.50;;;3.80;;
8556;SDS011;4316;53.840;10.762;2023-03-03T13:24:14;5.63;;;3.50;;
8556;SDS011;4316;53.840;10.762;2023-03-03T13:26:46;5.90;;;2.97;;
8556;SDS011;4316;53.840;10.762;2023-03-03T13:29:19;3.30;;;3.00;;
8556;SDS011;4316;53.840;10.762;2023-03-03T13:32:07;4.87;;;2.70;;
8556;SDS011;4316;53.840;10.762;2023-03-03T13:34:50;4.20;;;3.40;;
8556;SDS011;4316;53.840;10.762;2023-03-03T13:37:27;5.30;;;3.73;;
8556;SDS011;4316;53.840;10.762;2023-03-03T13:39:59;6.20;;;3.97;;
8556;SDS011;4316;53.840;10.762;2023-03-03T13:42:43;6.87;;;3.07;;
8556;SDS011;4316;53.840;10.762;2023-03-03T13:50:27;5.13;;;3.20;;
8556;SDS011;4316;53.840;10.762;2023-03-03T13:53:09;4.53;;;2.97;;
8556;SDS011;4316;53.840;10.762;2023-03-03T14:01:22;6.47;;;4.03;;
8556;SDS011;4316;53.840;10.762;2023-03-03T14:03:59;10.73;;;3.80;;
8556;SDS011;4316;53.840;10.762;2023-03-03T14:06:30;7.10;;;3.00;;
8556;SDS011;4316;53.840;10.762;2023-03-03T14:14:36;3.63;;;2.77;;
8556;SDS011;4316;53.840;10.762;2023-03-03T14:17:09;5.50;;;2.70;;
8556;SDS011;4316;53.840;10.762;2023-03-03T14:19:51;6.10;;;2.40;;
8556;SDS011;4316;53.840;10.762;2023-03-03T14:25:19;4.40;;;2.47;;
8556;SDS011;4316;53.840;10.762;2023-03-03T14:33:32;3.47;;;1.80;;
8556;SDS011;4316;53.840;10.762;2023-03-03T14:35:33;7.30;;;2.27;;
8556;SDS011;4316;53.840;10.762;2023-03-03T14:38:16;6.30;;;2.23;;
8556;SDS011;4316;53.840;10.762;2023-03-03T14:40:47;7.67;;;2.30;;
8556;SDS011;4316;53.840;10.762;2023-03-03T14:43:40;4.83;;;1.93;;
8556;SDS011;4316;53.840;10.762;2023-03-03T14:48:55;6.97;;;1.80;;
8556;SDS011;4316;53.840;10.762;2023-03-03T14:53:57;11.40;;;2.50;;
8556;SDS011;4316;53.840;10.762;2023-03-03T14:58:50;9.33;;;2.40;;
8556;SDS011;4316;53.840;10.762;2023-03-03T15:06:28;12.93;;;2.90;;
8556;SDS011;4316;53.840;10.762;2023-03-03T15:09:18;6.33;;;2.30;;
8556;SDS011;4316;53.840;10.762;2023-03-03T15:14:51;8.43;;;2.77;;
8556;SDS011;4316;53.840;10.762;2023-03-03T15:17:33;18.97;;;2.83;;
8556;SDS011;4316;53.840;10.762;2023-03-03T15:23:04;5.43;;;1.80;;
8556;SDS011;4316;53.840;10.762;2023-03-03T15:28:43;6.63;;;2.07;;
8556;SDS011;4316;53.840;10.762;2023-03-03T15:36:41;10.93;;;3.10;;
8556;SDS011;4316;53.840;10.762;2023-03-03T15:42:23;16.70;;;2.73;;
8556;SDS011;4316;53.840;10.762;2023-03-03T15:53:57;11.43;;;3.30;;
8556;SDS011;4316;53.840;10.762;2023-03-03T16:01:58;14.37;;;3.43;;
8556;SDS011;4316;53.840;10.762;2023-03-03T16:04:56;11.97;;;2.87;;
8556;SDS011;4316;53.840;10.762;2023-03-03T16:07:42;10.50;;;3.13;;
8556;SDS011;4316;53.840;10.762;2023-03-03T16:10:43;9.87;;;3.53;;
8556;SDS011;4316;53.840;10.762;2023-03-03T16:19:23;13.33;;;3.90;;
8556;SDS011;4316;53.840;10.762;2023-03-03T16:35:54;15.90;;;4.10;;
8556;SDS011;4316;53.840;10.762;2023-03-03T16:38:34;16.93;;;3.93;;
8556;SDS011;4316;53.840;10.762;2023-03-03T16:41:02;17.43;;;4.80;;
8556;SDS011;4316;53.840;10.762;2023-03-03T16:44:00;10.87;;;3.70;;
8556;SDS011;4316;53.840;10.762;2023-03-03T16:46:45;22.07;;;4.70;;
8556;SDS011;4316;53.840;10.762;2023-03-03T16:49:30;23.47;;;4.83;;
8556;SDS011;4316;53.840;10.762;2023-03-03T16:52:18;20.47;;;4.17;;
8556;SDS011;4316;53.840;10.762;2023-03-03T16:58:14;17.50;;;3.97;;
8556;SDS011;4316;53.840;10.762;2023-03-03T17:03:44;17.77;;;5.10;;
8556;SDS011;4316;53.840;10.762;2023-03-03T17:06:28;26.17;;;5.03;;
8556;SDS011;4316;53.840;10.762;2023-03-03T17:09:05;17.63;;;4.57;;
8556;SDS011;4316;53.840;10.762;2023-03-03T17:19:55;17.57;;;6.57;;
8556;SDS011;4316;53.840;10.762;2023-03-03T17:25:20;31.57;;;8.30;;
8556;SDS011;4316;53.840;10.762;2023-03-03T17:30:29;27.17;;;5.83;;
8556;SDS011;4316;53.840;10.762;2023-03-03T17:33:25;23.90;;;5.30;;
8556;SDS011;4316;53.840;10.762;2023-03-03T17:41:57;27.13;;;5.53;;
8556;SDS011;4316;53.840;10.762;2023-03-03T17:47:12;24.30;;;5.23;;
8556;SDS011;4316;53.840;10.762;2023-03-03T17:49:53;30.67;;;6.23;;
8556;SDS011;4316;53.840;10.762;2023-03-03T17:52:50;29.23;;;5.87;;
8556;SDS011;4316;53.840;10.762;2023-03-03T18:12:09;22.47;;;5.50;;
8556;SDS011;4316;53.840;10.762;2023-03-03T18:14:48;23.57;;;5.13;;
8556;SDS011;4316;53.840;10.762;2023-03-03T18:17:34;30.73;;;6.30;;
8556;SDS011;4316;53.840;10.762;2023-03-03T18:25:57;34.07;;;5.70;;
8556;SDS011;4316;53.840;10.762;2023-03-03T18:31:26;33.73;;;5.77;;
8556;SDS011;4316;53.840;10.762;2023-03-03T18:34:07;23.30;;;4.97;;
8556;SDS011;4316;53.840;10.762;2023-03-03T18:36:56;23.00;;;4.70;;
8556;SDS011;4316;53.840;10.762;2023-03-03T18:39:34;25.40;;;5.43;;
8556;SDS011;4316;53.840;10.762;2023-03-03T18:44:56;30.07;;;5.43;;
8556;SDS011;4316;53.840;10.762;2023-03-03T18:55:51;36.00;;;6.27;;
8556;SDS011;4316;53.840;10.762;2023-03-03T19:00:46;34.53;;;6.60;;
8556;SDS011;4316;53.840;10.762;2023-03-03T19:06:11;29.77;;;6.03;;
8556;SDS011;4316;53.840;10.762;2023-03-03T19:09:20;27.47;;;5.40;;
8556;SDS011;4316;53.840;10.762;2023-03-03T19:12:14;24.60;;;5.90;;
8556;SDS011;4316;53.840;10.762;2023-03-03T19:14:45;21.00;;;4.43;;
8556;SDS011;4316;53.840;10.762;2023-03-03T19:20:00;32.73;;;6.07;;
8556;SDS011;4316;53.840;10.762;2023-03-03T19:22:50;20.40;;;4.67;;
8556;SDS011;4316;53.840;10.762;2023-03-03T19:25:37;38.87;;;6.37;;
8556;SDS011;4316;53.840;10.762;2023-03-03T19:28:28;32.77;;;5.93;;
8556;SDS011;4316;53.840;10.762;2023-03-03T19:39:23;33.70;;;6.83;;
8556;SDS011;4316;53.840;10.762;2023-03-03T19:45:00;29.73;;;6.10;;
8556;SDS011;4316;53.840;10.762;2023-03-03T19:47:43;29.20;;;5.40;;
8556;SDS011;4316;53.840;10.762;2023-03-03T19:53:12;25.93;;;5.37;;
8556;SDS011;4316;53.840;10.762;2023-03-03T20:07:35;28.97;;;6.67;;
8556;SDS011;4316;53.840;10.762;2023-03-03T20:10:36;21.83;;;5.33;;
8556;SDS011;4316;53.840;10.762;2023-03-03T20:13:24;27.33;;;5.80;;
8556;SDS011;4316;53.840;10.762;2023-03-03T20:21:48;27.63;;;4.70;;
8556;SDS011;4316;53.840;10.762;2023-03-03T20:27:17;26.13;;;6.70;;
8556;SDS011;4316;53.840;10.762;2023-03-03T20:30:05;42.37;;;6.83;;
8556;SDS011;4316;53.840;10.762;2023-03-03T20:35:45;38.07;;;6.80;;
8556;SDS011;4316;53.840;10.762;2023-03-03T20:38:20;27.77;;;5.57;;
8556;SDS011;4316;53.840;10.762;2023-03-03T20:46:39;48.03;;;7.70;;
8556;SDS011;4316;53.840;10.762;2023-03-03T20:51:38;28.80;;;5.53;;
8556;SDS011;4316;53.840;10.762;2023-03-03T21:07:31;35.23;;;6.27;;
8556;SDS011;4316;53.840;10.762;2023-03-03T21:12:49;38.70;;;6.20;;
8556;SDS011;4316;53.840;10.762;2023-03-03T21:17:50;29.67;;;5.33;;
8556;SDS011;4316;53.840;10.762;2023-03-03T21:20:29;29.90;;;6.27;;
8556;SDS011;4316;53.840;10.762;2023-03-03T21:22:57;29.83;;;6.97;;
8556;SDS011;4316;53.840;10.762;2023-03-03T21:28:11;25.37;;;5.63;;
8556;SDS011;4316;53.840;10.762;2023-03-03T21:31:24;23.73;;;5.83;;
8556;SDS011;4316;53.840;10.762;2023-03-03T21:33:44;30.60;;;6.80;;
8556;SDS011;4316;53.840;10.762;2023-03-03T21:36:11;23.20;;;5.13;;
8556;SDS011;4316;53.840;10.762;2023-03-03T21:38:41;41.90;;;6.97;;
8556;SDS011;4316;53.840;10.762;2023-03-03T21:41:07;29.03;;;6.07;;
8556;SDS011;4316;53.840;10.762;2023-03-03T21:43:34;29.23;;;5.90;;
8556;SDS011;4316;53.840;10.762;2023-03-03T21:46:02;21.20;;;3.90;;
8556;SDS011;4316;53.840;10.762;2023-03-03T21:48:27;29.07;;;5.53;;
8556;SDS011;4316;53.840;10.762;2023-03-03T21:50:54;28.57;;;5.03;;